• Join FlightAware (Why Join?)
  • Login
  • US Flag 
03:40PM EST


 

Airport Tracker/Info


-or-


 

Live Flight TrackerFlight Track Log ✈ EGF2961 ✈ 17-Apr-2014 ✈ KGRR - KDFW

Flight Track Log - Related Links

Times and Time Zones

All times are in EDT time to prevent confusion due to time zone crossing. See the EGF2961 flight status page for this flight to view local times or setup timezone preferences in your user account.

Time Position Orientation Groundspeed Altitude Reporting Facility
EDT Latitude Longitude Course Direction KTS MPH feet Rate Location/Type
06:48AM 42.8464 -85.5175 227° Southwest 141 162 2,800  Level Chicago Center
06:49AM 42.8106 -85.5719 228° Southwest 190 219 4,300 1,934 Climbing Chicago Center
06:50AM 42.7678 -85.6400 229° Southwest 225 259 6,700 2,579 Climbing Chicago Center
06:51AM 42.7217 -85.7100 228° Southwest 241 277 9,500 2,281 Climbing Chicago Center
06:52AM 42.6764 -85.7808 229° Southwest 243 280 11,300 1,289 Climbing Chicago Center
06:53AM 42.5200 -86.0144 227° Southwest  Level FlightAware Approximate
06:53AM 42.6225 -85.8636 229° Southwest 284 327 12,100  Level Chicago Center
06:54AM 42.5650 -85.9539 229° Southwest 311 358 14,400 2,628 Climbing Chicago Center
06:55AM 42.5125 -86.0325 228° Southwest 287 330 17,400 2,213 Climbing Chicago Center
06:56AM 42.4669 -86.1022 228° Southwest 256 295 18,900 1,289 Climbing Chicago Center
06:57AM 42.4111 -86.1764 224° Southwest 272 313 20,000 1,190 Climbing Chicago Center
06:58AM 42.3500 -86.2572 224° Southwest 297 342 21,300 1,339 Climbing Chicago Center
06:59AM 42.2836 -86.3422 223° Southwest 304 350 22,700 1,190 Climbing Chicago Center
07:00AM 42.2186 -86.4283 224° Southwest 320 368 23,700 942 Climbing Chicago Center
07:01AM 42.1525 -86.5136 224° Southwest 327 376 24,600 942 Climbing Chicago Center
07:02AM 42.0844 -86.6031 224° Southwest 338 389 25,600 956 Climbing Chicago Center
07:04AM 41.9411 -86.7856 223° Southwest 340 391 27,500 956 Climbing Chicago Center
07:05AM 41.8725 -86.8744 224° Southwest 342 394 28,500 934 Climbing Chicago Center
07:06AM 41.8036 -86.9625 224° Southwest 342 394 29,400 942 Climbing Chicago Center
07:07AM 41.7339 -87.0483 223° Southwest 341 392 30,400 942 Climbing Chicago Center
07:08AM 41.6644 -87.1381 224° Southwest 343 395 31,300 934 Climbing Chicago Center
07:09AM 41.5942 -87.2272 224° Southwest 344 396 32,300 934 Climbing Chicago Center
07:10AM 41.5228 -87.3161 223° Southwest 349 402 33,200 885 Climbing Chicago Center
07:11AM 41.4514 -87.4072 224° Southwest 351 404 34,100 942 Climbing Chicago Center
07:12AM 41.3811 -87.4967 224° Southwest 351 404 35,100 942 Climbing Chicago Center
07:13AM 41.3092 -87.5847 223° Southwest 350 403 36,000 439 Climbing Chicago Center
07:14AM 41.2375 -87.6753 224° Southwest 350 403 36,000  Level Chicago Center
07:15AM 41.1628 -87.7672 223° Southwest 358 412 36,000  Level Chicago Center
07:16AM 41.0731 -87.8800 223° Southwest 362 417 36,000  Level Chicago Center
07:17AM 40.9964 -87.9733 223° Southwest 368 423 36,000  Level Chicago Center
07:18AM 40.9194 -88.0669 223° Southwest 370 426 36,000  Level Chicago Center
07:19AM 40.8422 -88.1608 223° Southwest 372 428 36,000  Level Chicago Center
07:20AM 40.7653 -88.2547 223° Southwest 374 430 36,000  Level Chicago Center
07:21AM 40.6889 -88.3494 223° Southwest 374 430 36,000  Level Chicago Center
07:22AM 40.6117 -88.4411 222° Southwest 374 430 36,000  Level Chicago Center
07:23AM 40.5358 -88.5344 223° Southwest 374 430 36,000  Level Chicago Center
07:24AM 40.4594 -88.6269 223° Southwest 374 430 36,000  Level Chicago Center
07:25AM 40.3803 -88.7194 222° Southwest 375 432 36,000  Level Chicago Center
07:26AM 40.3039 -88.8108 222° Southwest 375 432 36,000  Level Chicago Center
07:27AM 40.2256 -88.9036 222° Southwest 375 432 36,000  Level Chicago Center
07:28AM 40.1469 -88.9961 222° Southwest 375 432 36,000  Level Chicago Center
07:29AM 40.0661 -89.0922 222° Southwest 379 436 36,000  Level Kansas City Center
07:30AM 39.9878 -89.1853 222° Southwest 380 437 36,000  Level Kansas City Center
07:31AM 39.9078 -89.2781 222° Southwest 381 438 36,000  Level Kansas City Center
07:32AM 39.8292 -89.3706 222° Southwest 381 438 36,000  Level Kansas City Center
07:33AM 39.7500 -89.4650 223° Southwest 381 438 36,000  Level Kansas City Center
07:34AM 39.6689 -89.5586 222° Southwest 381 438 36,000  Level Kansas City Center
07:35AM 39.5892 -89.6514 222° Southwest 382 440 36,000  Level Kansas City Center
07:36AM 39.5108 -89.7408 221° Southwest 381 438 36,000  Level Kansas City Center
07:37AM 39.4322 -89.8322 222° Southwest 381 438 36,000  Level Kansas City Center
07:38AM 39.3375 -89.9403 221° Southwest 381 438 36,000  Level Kansas City Center
07:39AM 39.2594 -90.0297 222° Southwest 380 437 36,000  Level Kansas City Center
07:40AM 39.1814 -90.1194 222° Southwest 380 437 36,000  Level Kansas City Center
07:41AM 39.1033 -90.2092 222° Southwest 380 437 36,000  Level Kansas City Center
07:42AM 39.0236 -90.2983 221° Southwest 379 436 36,000  Level Kansas City Center
07:43AM 38.9394 -90.3936 221° Southwest 377 434 36,000  Level Kansas City Center
07:44AM 38.8608 -90.4828 221° Southwest 377 434 36,000  Level Kansas City Center
07:45AM 38.7933 -90.5825 229° Southwest 375 432 36,000  Level Kansas City Center
07:46AM 38.7219 -90.6872 229° Southwest 373 429 36,000  Level Kansas City Center
07:47AM 38.6528 -90.7869 228° Southwest 373 429 36,000  Level Kansas City Center
07:48AM 38.5853 -90.8850 229° Southwest 373 429 36,000  Level Kansas City Center
07:49AM 38.5181 -90.9828 229° Southwest 372 428 36,000  Level Kansas City Center
07:50AM 38.4500 -91.0817 229° Southwest 372 428 36,000  Level Kansas City Center
07:51AM 38.3828 -91.1803 229° Southwest 372 428 36,000  Level Kansas City Center
07:52AM 38.3131 -91.2781 228° Southwest 373 429 36,000  Level Kansas City Center
07:54AM 38.2444 -91.3772 229° Southwest 373 429 36,000  Level Kansas City Center
07:55AM 38.1711 -91.4825 228° Southwest 374 430 36,000  Level Kansas City Center
07:56AM 38.1011 -91.5806 228° Southwest 373 429 36,000  Level Kansas City Center
07:57AM 38.0319 -91.6794 228° Southwest 373 429 36,000  Level Kansas City Center
07:58AM 37.9628 -91.7783 228° Southwest 373 429 36,000  Level Kansas City Center
07:59AM 37.8922 -91.8778 228° Southwest 374 430 36,000  Level Kansas City Center
08:00AM 37.8231 -91.9756 228° Southwest 373 429 36,000  Level Kansas City Center
08:01AM 37.7533 -92.0750 228° Southwest 373 429 36,000  Level Kansas City Center
08:02AM 37.6783 -92.1778 227° Southwest 373 429 36,000  Level Kansas City Center
08:03AM 37.6122 -92.2714 228° Southwest 373 429 36,000  Level Kansas City Center
08:04AM 37.5428 -92.3692 228° Southwest 372 428 36,000  Level Kansas City Center
08:05AM 37.4731 -92.4669 228° Southwest 371 427 36,000  Level Kansas City Center
08:06AM 37.4042 -92.5611 227° Southwest 369 425 36,000  Level Kansas City Center
08:07AM 37.3331 -92.6569 227° Southwest 369 425 36,000  Level Kansas City Center
08:08AM 37.2633 -92.7536 228° Southwest 370 426 36,000  Level Kansas City Center
08:09AM 37.1792 -92.8675 227° Southwest 370 426 36,000  Level Kansas City Center
08:10AM 37.1067 -92.9594 225° Southwest 370 426 36,000  Level Kansas City Center
08:11AM 37.0136 -93.0264 210° Southwest 383 441 36,000  Level Kansas City Center
08:12AM 36.9242 -93.0961 212° Southwest 378 435 36,000  Level Kansas City Center
08:13AM 36.8456 -93.1567 212° Southwest 379 436 36,000  Level Kansas City Center
08:14AM 36.7569 -93.2272 213° Southwest 378 435 36,000  Level Kansas City Center
08:15AM 36.6492 -93.3100 212° Southwest 379 436 36,000  Level Kansas City Center
08:16AM 36.5586 -93.3800 212° Southwest 380 437 36,000  Level Kansas City Center
08:17AM 36.4686 -93.4506 212° Southwest 381 438 36,000  Level Kansas City Center
08:18AM 36.3661 -93.4992 201° Southwest 393 452 36,000  Level Kansas City Center
08:19AM 36.2286 -93.4886 176° South 409 471 36,000  Level Memphis Center
08:20AM 36.1150 -93.4783 176° South 410 472 36,000  Level Memphis Center
08:21AM 36.0003 -93.4703 177° South 411 473 36,000  Level Memphis Center
08:22AM 35.8867 -93.4614 176° South 411 473 36,000  Level Memphis Center
08:23AM 35.7717 -93.4533 177° South 411 473 36,000  Level Memphis Center
08:24AM 35.6575 -93.4458 177° South 412 474 36,000  Level Memphis Center
08:25AM 35.5372 -93.5039 201° Southwest 406 467 36,000  Level Memphis Center
08:26AM 35.4778 -93.6108 236° Southwest 390 449 36,000  Level Memphis Center
08:27AM 35.4278 -93.7258 242° Southwest 389 448 36,000  Level Memphis Center
08:28AM 35.3789 -93.8419 243° Southwest 389 448 36,000  Level Memphis Center
08:29AM 35.3261 -93.9647 242° Southwest 389 448 36,000  Level Memphis Center
08:30AM 35.2750 -94.0839 242° Southwest 390 449 36,000  Level Memphis Center
08:31AM 35.2233 -94.2006 242° Southwest 390 449 36,000  Level Memphis Center
08:32AM 35.1647 -94.3372 242° Southwest 392 451 36,000  Level Memphis Center
08:33AM 35.1119 -94.4556 241° Southwest 394 453 36,000  Level Memphis Center
08:35AM 35.0600 -94.5733 242° Southwest 394 453 36,000  Level Memphis Center
08:36AM 34.9967 -94.6950 238° Southwest 396 456 36,000  Level Memphis Center
08:37AM 34.9142 -94.7864 222° Southwest 399 459 36,000  Level Memphis Center
08:38AM 34.8311 -94.8753 221° Southwest 399 459 36,000  Level Memphis Center
08:39AM 34.7472 -94.9650 221° Southwest 399 459 36,000 -145 Level Memphis Center
08:40AM 34.6511 -95.0283 208° Southwest 399 459 35,700 -683 Descending Memphis Center
08:41AM 34.5269 -95.0164 175° South 409 471 34,600 -1,087 Descending Memphis Center
08:42AM 34.3836 -94.9842 169° South 407 468 33,200 -993 Descending Fort Worth Center
08:43AM 34.2842 -94.9714 174° South 404 465 32,300 -774 Descending Fort Worth Center
08:44AM 34.1853 -95.0236 204° Southwest 402 463 31,600 -1,024 Descending Fort Worth Center
08:45AM 34.1108 -95.1569 236° Southwest 402 463 30,200 -1,415 Descending Fort Worth Center
08:46AM 34.0500 -95.2708 237° Southwest 404 465 28,700 -1,452 Descending Fort Worth Center
08:47AM 33.9922 -95.3847 239° Southwest 403 464 27,200 -1,355 Descending Fort Worth Center
08:48AM 33.9325 -95.4978 238° Southwest 402 463 25,900 -1,452 Descending Fort Worth Center
08:49AM 33.8658 -95.6222 237° Southwest 408 470 24,200 -1,887 Descending Fort Worth Center
08:50AM 33.8108 -95.7247 237° Southwest 373 429 22,000 -2,129 Descending Fort Worth Center
08:51AM 33.7572 -95.8272 238° Southwest 361 415 19,800 -2,244 Descending Fort Worth Center
08:52AM 33.6864 -95.9456 234° Southwest 373 429 17,400 -2,244 Descending Fort Worth Center
08:53AM 33.6258 -96.0411 233° Southwest 364 419 15,200 -1,887 Descending Fort Worth Center
08:54AM 33.5644 -96.1375 233° Southwest 340 391 13,500 -1,645 Descending Fort Worth Center
08:55AM 33.5106 -96.2239 233° Southwest 327 376 11,800 -1,210 Descending Fort Worth Center
08:56AM 33.4539 -96.3117 232° Southwest 313 360 11,000 -387 Descending Fort Worth Center
08:57AM 33.4058 -96.3886 233° Southwest 291 335 11,000 -968 Level Fort Worth Center
08:58AM 33.3475 -96.4603 226° Southwest 282 325 9,000 -1,920 Descending Fort Worth Center
09:00AM 33.2944 -96.5233 225° Southwest 275 316 7,000 -1,920 Descending Fort Worth Center
09:01AM 33.2822 -96.6194 261° West 278 320 5,000 -968 Descending Fort Worth Center
09:02AM 33.2806 -96.7075 269° West 269 310 5,000 48 Level Fort Worth Center
09:03AM 33.2778 -96.7989 268° West 261 300 5,100 48 Climbing Fort Worth Center
09:04AM 33.2581 -96.8800 254° West 266 306 5,100 -532 Level Fort Worth Center
09:05AM 33.2217 -96.9531 239° Southwest 260 299 4,000 -968 Descending Fort Worth Center
09:06AM 33.1628 -96.9858 205° Southwest 222 255 3,100 -435 Descending Fort Worth Center
09:07AM 33.1050 -97.0050 196° South 215 247 3,100  Level Fort Worth Center
09:08AM 33.0378 -97.0097 183° South 223 257 3,100 -484 Level Fort Worth Center
09:09AM 32.9769 -97.0100 180° South 220 253 2,100 -871 Descending Fort Worth Center
09:10AM 32.9314 -97.0108 181° South 147 169 1,300 -726 Descending Fort Worth Center
09:11AM 32.9014 -97.0100 179° South 131 151 600 -677 Descending Fort Worth Center
09:13AM 32.8833 -97.0333 191° South  Level FlightAware Approximate
09:20AM 32.8968 -97.0380 344° North  Level Estimated